createdAt,value
2023-06-25T00:00:39.196Z,28.00
2023-06-25T00:03:06.448Z,28.00
2023-06-25T00:05:33.514Z,28.00
2023-06-25T00:08:00.418Z,28.00
2023-06-25T00:10:27.340Z,27.90
2023-06-25T00:12:54.252Z,28.00
2023-06-25T00:15:21.267Z,27.90
2023-06-25T00:17:48.983Z,28.00
2023-06-25T00:20:19.322Z,28.00
2023-06-25T00:23:04.898Z,28.00
2023-06-25T00:25:33.114Z,28.00
2023-06-25T00:28:00.936Z,28.00
2023-06-25T00:30:27.855Z,28.00
2023-06-25T00:32:57.515Z,27.90
2023-06-25T00:35:29.254Z,27.90
2023-06-25T00:37:58.203Z,27.90
2023-06-25T00:40:25.877Z,27.90
2023-06-25T00:42:58.068Z,27.90
2023-06-25T00:45:28.097Z,27.90
2023-06-25T00:47:56.212Z,27.90
2023-06-25T00:50:23.703Z,27.90
2023-06-25T00:52:51.604Z,27.90
2023-06-25T00:55:20.510Z,27.80
2023-06-25T00:57:48.108Z,27.80
2023-06-25T01:00:16.323Z,27.80
2023-06-25T01:02:49.824Z,27.80
2023-06-25T01:05:16.791Z,27.80
2023-06-25T01:07:45.595Z,27.70
2023-06-25T01:10:13.398Z,27.70
2023-06-25T01:12:41.198Z,27.70
2023-06-25T01:15:10.725Z,27.70
2023-06-25T01:17:39.335Z,27.60
2023-06-25T01:20:07.407Z,27.60
2023-06-25T01:22:34.558Z,27.60
2023-06-25T01:25:01.862Z,27.50
2023-06-25T01:27:28.833Z,27.50
2023-06-25T01:29:55.734Z,27.50
2023-06-25T01:32:25.577Z,27.50
2023-06-25T01:34:52.624Z,27.50
2023-06-25T01:37:19.597Z,27.40
2023-06-25T01:39:51.606Z,27.50
2023-06-25T01:42:18.981Z,27.40
2023-06-25T01:44:46.009Z,27.40
2023-06-25T01:47:13.264Z,27.40
2023-06-25T01:49:40.198Z,27.40
2023-06-25T01:52:08.547Z,27.30
2023-06-25T01:54:36.077Z,27.30
2023-06-25T01:57:03.790Z,27.30
2023-06-25T01:59:30.713Z,27.30
2023-06-25T02:01:57.730Z,27.30
2023-06-25T02:04:24.709Z,27.30
2023-06-25T02:06:51.641Z,27.20
2023-06-25T02:09:18.670Z,27.20
2023-06-25T02:11:47.250Z,27.20
2023-06-25T02:14:14.207Z,27.20
2023-06-25T02:16:41.162Z,27.20
2023-06-25T02:19:08.094Z,27.20
2023-06-25T02:21:35.066Z,27.20
2023-06-25T02:24:02.067Z,27.10
2023-06-25T02:26:30.581Z,27.10
2023-06-25T02:28:58.178Z,27.10
2023-06-25T02:31:25.311Z,27.10
2023-06-25T02:33:52.294Z,27.10
2023-06-25T02:36:19.223Z,27.00
2023-06-25T02:38:46.262Z,27.00
2023-06-25T02:41:13.198Z,27.00
2023-06-25T02:43:40.145Z,27.00
2023-06-25T02:46:07.071Z,27.00
2023-06-25T02:48:35.169Z,27.00
2023-06-25T02:51:02.091Z,26.90
2023-06-25T02:53:29.068Z,26.90
2023-06-25T02:55:55.950Z,26.90
2023-06-25T02:58:22.888Z,26.90
2023-06-25T03:00:49.834Z,26.90
2023-06-25T03:03:16.870Z,26.90
2023-06-25T03:05:44.228Z,26.80
2023-06-25T03:08:11.467Z,26.90
2023-06-25T03:10:39.319Z,26.90
2023-06-25T03:13:07.171Z,26.80
2023-06-25T03:15:34.346Z,26.80
2023-06-25T03:18:01.532Z,26.80
2023-06-25T03:20:28.489Z,26.70
2023-06-25T03:22:55.469Z,26.80
2023-06-25T03:25:22.545Z,26.70
2023-06-25T03:27:49.448Z,26.70
2023-06-25T03:30:16.415Z,26.70
2023-06-25T03:32:43.842Z,26.70
2023-06-25T03:35:10.909Z,26.70
2023-06-25T03:37:37.886Z,26.70
2023-06-25T03:40:05.432Z,26.70
2023-06-25T03:42:32.414Z,26.70
2023-06-25T03:44:59.441Z,26.70
2023-06-25T03:47:26.424Z,26.70
2023-06-25T03:49:53.381Z,26.60
2023-06-25T03:52:20.417Z,26.60
2023-06-25T03:54:47.306Z,26.60
2023-06-25T03:57:14.263Z,26.60
2023-06-25T03:59:41.215Z,26.60
2023-06-25T04:02:09.234Z,26.50
2023-06-25T04:04:36.206Z,26.50
2023-06-25T04:07:03.422Z,26.50
2023-06-25T04:09:30.366Z,26.50
2023-06-25T04:11:57.393Z,26.50
2023-06-25T04:14:24.409Z,26.40
2023-06-25T04:16:51.391Z,26.40
2023-06-25T04:19:18.386Z,26.40
2023-06-25T04:21:45.491Z,26.40
2023-06-25T04:24:12.407Z,26.40
2023-06-25T04:26:39.452Z,26.40
2023-06-25T04:29:06.412Z,26.40
2023-06-25T04:31:33.393Z,26.40
2023-06-25T04:34:00.435Z,26.40
2023-06-25T04:36:27.393Z,26.40
2023-06-25T04:38:54.266Z,26.40
2023-06-25T04:41:21.189Z,26.40
2023-06-25T04:43:48.174Z,26.40
2023-06-25T04:46:15.253Z,26.40
2023-06-25T04:48:45.646Z,26.40
2023-06-25T04:51:13.775Z,26.50
2023-06-25T04:53:40.926Z,26.50
2023-06-25T04:56:08.267Z,26.50
2023-06-25T04:58:37.081Z,26.50
2023-06-25T05:01:04.561Z,26.50
2023-06-25T05:03:31.600Z,26.60
2023-06-25T05:05:59.222Z,26.60
2023-06-25T05:08:26.412Z,26.60
2023-06-25T05:10:53.365Z,26.60
2023-06-25T05:13:21.078Z,26.60
2023-06-25T05:15:48.279Z,26.60
2023-06-25T05:18:15.320Z,26.60
2023-06-25T05:20:42.265Z,26.60
2023-06-25T05:23:11.006Z,26.60
2023-06-25T05:25:38.257Z,26.60
2023-06-25T05:28:05.724Z,26.60
2023-06-25T05:30:35.236Z,26.70
2023-06-25T05:33:02.636Z,26.70
2023-06-25T05:35:32.923Z,26.70
2023-06-25T05:38:00.076Z,26.70
2023-06-25T05:40:28.481Z,26.80
2023-06-25T05:42:56.173Z,26.80
2023-06-25T05:45:23.595Z,26.80
2023-06-25T05:47:50.718Z,26.90
2023-06-25T05:50:17.811Z,26.90
2023-06-25T05:52:45.268Z,26.90
2023-06-25T05:55:13.564Z,27.00
2023-06-25T05:57:41.406Z,27.00
2023-06-25T06:00:10.326Z,27.00
2023-06-25T06:02:37.640Z,27.00
2023-06-25T06:05:05.475Z,27.10
2023-06-25T06:07:32.480Z,27.10
2023-06-25T06:09:59.930Z,27.10
2023-06-25T06:12:27.266Z,27.20
2023-06-25T06:14:54.775Z,27.20
2023-06-25T06:17:22.018Z,27.30
2023-06-25T06:19:49.076Z,27.30
2023-06-25T06:22:17.781Z,27.30
2023-06-25T06:24:44.699Z,27.30
2023-06-25T06:27:11.648Z,27.40
2023-06-25T06:29:38.598Z,27.40
2023-06-25T06:32:06.259Z,27.40
2023-06-25T06:34:33.228Z,27.50
2023-06-25T06:37:00.567Z,27.50
2023-06-25T06:39:27.518Z,27.50
2023-06-25T06:41:54.481Z,27.50
2023-06-25T06:44:21.453Z,27.50
2023-06-25T06:46:48.438Z,27.60
2023-06-25T06:49:18.177Z,27.60
2023-06-25T06:51:45.519Z,27.60
2023-06-25T06:54:12.617Z,27.70
2023-06-25T06:56:40.615Z,27.70
2023-06-25T06:59:07.594Z,27.70
2023-06-25T07:01:35.537Z,27.70
2023-06-25T07:04:02.832Z,27.80
2023-06-25T07:06:29.912Z,27.80
2023-06-25T07:08:56.911Z,27.80
2023-06-25T07:11:24.025Z,27.80
2023-06-25T07:13:51.450Z,27.90
2023-06-25T07:16:18.531Z,27.90
2023-06-25T07:18:45.542Z,27.90
2023-06-25T07:21:12.571Z,28.00
2023-06-25T07:23:39.560Z,28.00
2023-06-25T07:26:06.826Z,28.00
2023-06-25T07:28:33.749Z,28.00
2023-06-25T07:31:00.747Z,28.10
2023-06-25T07:33:27.748Z,28.10
2023-06-25T07:35:54.735Z,28.10
2023-06-25T07:38:21.635Z,28.20
2023-06-25T07:40:48.538Z,28.20
2023-06-25T07:43:15.434Z,28.30
2023-06-25T07:45:42.589Z,28.20
2023-06-25T07:48:09.642Z,28.30
2023-06-25T07:50:36.539Z,28.30
2023-06-25T07:53:03.453Z,28.40
2023-06-25T07:55:30.454Z,28.40
2023-06-25T07:57:57.427Z,28.40
2023-06-25T08:00:24.495Z,28.40
2023-06-25T08:02:51.558Z,28.50
2023-06-25T08:05:18.546Z,28.50
2023-06-25T08:07:45.482Z,28.50
2023-06-25T08:10:12.553Z,28.60
2023-06-25T08:12:39.523Z,28.60
2023-06-25T08:15:06.875Z,28.60
2023-06-25T08:17:33.919Z,28.70
2023-06-25T08:20:01.199Z,28.70
2023-06-25T08:22:28.177Z,28.70
2023-06-25T08:24:56.609Z,28.80
2023-06-25T08:27:23.580Z,28.80
2023-06-25T08:29:50.497Z,28.90
2023-06-25T08:32:17.582Z,28.90
2023-06-25T08:34:44.633Z,28.90
2023-06-25T08:37:11.616Z,29.00
2023-06-25T08:39:38.824Z,29.00
2023-06-25T08:42:06.330Z,29.00
2023-06-25T08:44:33.279Z,29.10
2023-06-25T08:47:00.803Z,29.10
2023-06-25T08:49:31.215Z,29.10
2023-06-25T08:52:00.932Z,29.20
2023-06-25T08:54:27.962Z,29.30
2023-06-25T08:56:54.898Z,29.30
2023-06-25T08:59:22.243Z,29.40
2023-06-25T09:01:49.339Z,29.70
2023-06-25T09:04:16.312Z,30.10
2023-06-25T09:06:59.077Z,30.60
2023-06-25T09:09:30.255Z,31.20
2023-06-25T09:11:57.258Z,32.00
2023-06-25T09:14:24.265Z,32.70
2023-06-25T09:16:51.436Z,33.40
2023-06-25T09:19:22.572Z,34.10
2023-06-25T09:21:50.300Z,34.80
2023-06-25T09:24:21.697Z,35.40
2023-06-25T09:26:52.814Z,36.10
2023-06-25T09:29:22.007Z,36.60
2023-06-25T09:31:52.791Z,37.20
2023-06-25T09:34:20.535Z,37.70
2023-06-25T09:36:47.625Z,38.20
2023-06-25T09:39:14.802Z,38.50
2023-06-25T09:41:43.274Z,39.00
2023-06-25T09:44:10.775Z,39.30
2023-06-25T09:46:41.246Z,39.60
2023-06-25T09:49:08.763Z,39.90
2023-06-25T09:51:44.265Z,40.00
2023-06-25T09:54:13.721Z,39.90
2023-06-25T09:56:45.273Z,39.60
2023-06-25T09:59:13.443Z,39.30
2023-06-25T10:01:41.193Z,38.80
2023-06-25T10:04:08.864Z,38.40
2023-06-25T10:06:36.977Z,37.90
2023-06-25T10:09:05.057Z,37.40
2023-06-25T10:11:32.178Z,36.90
2023-06-25T10:14:02.871Z,36.50
2023-06-25T10:19:04.211Z,35.70
2023-06-25T10:21:32.171Z,35.30
2023-06-25T10:24:04.709Z,35.00
2023-06-25T10:26:36.214Z,34.70
2023-06-25T10:29:07.558Z,34.50
2023-06-25T10:31:39.254Z,34.20
2023-06-25T10:34:08.250Z,34.10
2023-06-25T10:36:35.665Z,34.10
2023-06-25T10:39:03.821Z,34.10
2023-06-25T10:41:32.349Z,34.10
2023-06-25T10:43:59.822Z,34.10
2023-06-25T10:46:36.163Z,34.00
2023-06-25T10:49:05.503Z,33.90
2023-06-25T10:51:35.171Z,33.80
2023-06-25T10:54:02.462Z,33.80
2023-06-25T10:56:29.459Z,33.70
2023-06-25T10:58:58.099Z,33.60
2023-06-25T11:01:25.957Z,33.50
2023-06-25T11:03:53.124Z,33.40
2023-06-25T11:06:20.209Z,33.30
2023-06-25T11:08:48.990Z,33.20
2023-06-25T11:11:16.424Z,33.10
2023-06-25T11:13:43.501Z,33.00
2023-06-25T11:16:10.457Z,33.00
2023-06-25T11:18:37.585Z,32.90
2023-06-25T11:21:06.616Z,32.90
2023-06-25T11:23:33.937Z,32.90
2023-06-25T11:26:03.635Z,32.80
2023-06-25T11:28:30.682Z,32.80
2023-06-25T11:30:59.776Z,32.80
2023-06-25T11:33:26.766Z,32.80
2023-06-25T11:36:05.818Z,32.70
2023-06-25T11:38:32.795Z,32.70
2023-06-25T11:41:00.050Z,32.70
2023-06-25T11:43:27.844Z,32.70
2023-06-25T11:46:01.072Z,32.60
2023-06-25T11:48:28.185Z,32.60
2023-06-25T11:51:02.442Z,32.60
2023-06-25T11:53:29.354Z,32.60
2023-06-25T11:55:56.335Z,32.60
2023-06-25T11:58:23.578Z,32.60
2023-06-25T12:00:50.563Z,32.60
2023-06-25T12:03:17.541Z,32.60
2023-06-25T12:05:44.545Z,32.50
2023-06-25T12:08:11.475Z,32.50
2023-06-25T12:10:38.377Z,32.50
2023-06-25T12:13:05.408Z,32.50
2023-06-25T12:15:32.313Z,32.50
2023-06-25T12:17:59.277Z,32.50
2023-06-25T12:20:26.213Z,32.50
2023-06-25T12:22:53.200Z,32.60
2023-06-25T12:25:20.091Z,32.60
2023-06-25T12:27:46.992Z,32.60
2023-06-25T12:30:15.489Z,32.70
2023-06-25T12:32:42.554Z,32.80
2023-06-25T12:35:10.602Z,32.80
2023-06-25T12:37:37.583Z,32.80
2023-06-25T12:40:06.793Z,32.80
2023-06-25T12:42:33.728Z,32.80
2023-06-25T12:45:00.680Z,32.80
2023-06-25T12:47:27.649Z,32.80
2023-06-25T12:49:54.578Z,32.90
2023-06-25T12:52:21.534Z,32.90
2023-06-25T12:54:48.461Z,32.90
2023-06-25T12:57:15.399Z,33.00
2023-06-25T12:59:42.522Z,33.00
2023-06-25T13:02:09.511Z,33.00
2023-06-25T13:04:36.501Z,33.00
2023-06-25T13:07:03.539Z,33.10
2023-06-25T13:09:31.732Z,33.10
2023-06-25T13:11:58.826Z,33.20
2023-06-25T13:14:25.761Z,33.40
2023-06-25T13:16:53.464Z,33.80
2023-06-25T13:19:20.383Z,34.40
2023-06-25T13:21:48.019Z,35.00
2023-06-25T13:24:15.332Z,35.80
2023-06-25T13:26:46.088Z,36.50
2023-06-25T13:29:13.352Z,37.20
2023-06-25T13:31:40.567Z,37.80
2023-06-25T13:34:07.590Z,38.30
2023-06-25T13:36:34.600Z,38.60
2023-06-25T13:39:01.548Z,39.00
2023-06-25T13:41:28.494Z,39.20
2023-06-25T13:43:55.496Z,39.40
2023-06-25T13:46:22.481Z,39.70
2023-06-25T13:48:49.475Z,39.70
2023-06-25T13:51:16.472Z,39.90
2023-06-25T13:53:44.772Z,40.00
2023-06-25T13:56:12.068Z,40.00
2023-06-25T13:58:39.048Z,40.10
2023-06-25T14:01:05.976Z,40.10
2023-06-25T14:03:33.288Z,40.10
2023-06-25T14:06:00.814Z,40.10
2023-06-25T14:08:27.836Z,40.10
2023-06-25T14:10:54.992Z,40.00
2023-06-25T14:13:22.623Z,40.00
2023-06-25T14:15:55.912Z,39.80
2023-06-25T14:18:29.215Z,39.70
2023-06-25T14:20:56.333Z,39.50
2023-06-25T14:23:23.213Z,39.40
2023-06-25T14:25:51.604Z,39.20
2023-06-25T14:28:18.599Z,39.00
2023-06-25T14:30:45.521Z,38.70
2023-06-25T14:33:12.642Z,38.50
2023-06-25T14:35:39.777Z,38.30
2023-06-25T14:38:06.902Z,38.20
2023-06-25T14:40:33.827Z,38.00
2023-06-25T14:43:00.828Z,37.80
2023-06-25T14:45:27.976Z,37.60
2023-06-25T14:47:55.009Z,37.50
2023-06-25T14:50:21.950Z,37.50
2023-06-25T14:52:49.240Z,37.60
2023-06-25T14:55:16.310Z,37.90
2023-06-25T14:57:43.232Z,38.30
2023-06-25T15:00:10.799Z,38.90
2023-06-25T15:02:37.958Z,39.40
2023-06-25T15:05:06.112Z,39.90
2023-06-25T15:07:33.025Z,40.40
2023-06-25T15:10:01.225Z,40.70
2023-06-25T15:12:28.361Z,41.00
2023-06-25T15:14:55.238Z,41.40
2023-06-25T15:17:22.213Z,41.60
2023-06-25T15:19:50.232Z,41.90
2023-06-25T15:22:17.161Z,42.00
2023-06-25T15:24:44.079Z,42.20
2023-06-25T15:27:10.951Z,42.40
2023-06-25T15:29:38.535Z,42.60
2023-06-25T15:32:06.134Z,42.70
2023-06-25T15:34:33.041Z,42.80
2023-06-25T15:37:00.011Z,42.90
2023-06-25T15:39:27.034Z,42.90
2023-06-25T15:41:54.196Z,42.60
2023-06-25T15:44:21.569Z,42.30
2023-06-25T15:46:48.730Z,42.00
2023-06-25T15:49:15.757Z,41.50
2023-06-25T15:51:42.714Z,41.20
2023-06-25T15:54:25.001Z,40.80
2023-06-25T15:56:52.321Z,40.50
2023-06-25T15:59:20.110Z,40.10
2023-06-25T16:01:47.186Z,39.80
2023-06-25T16:04:14.244Z,39.50
2023-06-25T16:06:41.269Z,39.20
2023-06-25T16:09:08.317Z,38.90
2023-06-25T16:11:37.172Z,38.60
2023-06-25T16:14:04.307Z,38.40
2023-06-25T16:16:31.379Z,38.20
2023-06-25T16:19:14.333Z,38.00
2023-06-25T16:21:46.305Z,37.80
2023-06-25T16:24:13.379Z,37.60
2023-06-25T16:26:40.291Z,37.50
2023-06-25T16:29:07.248Z,37.40
2023-06-25T16:31:34.159Z,37.30
2023-06-25T16:34:01.185Z,37.20
2023-06-25T16:36:28.101Z,37.00
2023-06-25T16:38:54.975Z,36.90
2023-06-25T16:41:23.586Z,36.80
2023-06-25T16:43:50.664Z,36.80
2023-06-25T16:46:17.637Z,36.70
2023-06-25T16:48:44.645Z,36.60
2023-06-25T16:51:11.724Z,36.50
2023-06-25T16:53:38.713Z,36.50
2023-06-25T16:56:05.698Z,36.40
2023-06-25T16:58:32.652Z,36.30
2023-06-25T17:00:59.583Z,36.30
2023-06-25T17:03:26.527Z,36.20
2023-06-25T17:05:53.672Z,36.10
2023-06-25T17:08:20.604Z,36.10
2023-06-25T17:10:47.624Z,36.00
2023-06-25T17:13:14.679Z,36.00
2023-06-25T17:15:41.604Z,35.90
2023-06-25T17:18:08.577Z,35.80
2023-06-25T17:20:35.506Z,35.70
2023-06-25T17:23:02.491Z,35.70
2023-06-25T17:25:29.625Z,35.70
2023-06-25T17:27:56.566Z,35.60
2023-06-25T17:30:23.479Z,35.50
2023-06-25T17:32:51.330Z,35.40
2023-06-25T17:35:18.408Z,35.40
2023-06-25T17:37:45.373Z,35.30
2023-06-25T17:40:14.440Z,35.30
2023-06-25T17:42:41.629Z,35.20
2023-06-25T17:45:08.797Z,35.10
2023-06-25T17:47:35.737Z,35.10
2023-06-25T17:50:02.999Z,35.00
2023-06-25T17:52:29.870Z,35.00
2023-06-25T17:54:56.823Z,34.90
2023-06-25T17:57:23.730Z,34.90
2023-06-25T17:59:50.673Z,34.80
2023-06-25T18:02:19.047Z,34.70
2023-06-25T18:04:46.012Z,34.70
2023-06-25T18:07:15.128Z,34.60
2023-06-25T18:09:42.170Z,34.60
2023-06-25T18:12:09.396Z,34.40
2023-06-25T18:14:36.352Z,34.40
2023-06-25T18:17:03.543Z,34.30
2023-06-25T18:19:31.333Z,34.20
2023-06-25T18:21:58.239Z,34.20
2023-06-25T18:24:25.140Z,34.10
2023-06-25T18:26:52.110Z,34.10
2023-06-25T18:29:19.016Z,34.00
2023-06-25T18:31:46.745Z,33.90
2023-06-25T18:34:15.383Z,33.80
2023-06-25T18:36:44.688Z,33.80
2023-06-25T18:39:11.605Z,33.70
2023-06-25T18:41:38.689Z,33.60
2023-06-25T18:44:05.755Z,33.50
2023-06-25T18:46:32.673Z,33.40
2023-06-25T18:48:59.610Z,33.40
2023-06-25T18:51:27.998Z,33.30
2023-06-25T18:53:54.898Z,33.30
2023-06-25T18:56:22.004Z,33.20
2023-06-25T18:58:48.922Z,33.10
2023-06-25T19:01:15.849Z,33.10
2023-06-25T19:03:43.117Z,33.00
2023-06-25T19:06:10.138Z,32.90
2023-06-25T19:08:37.074Z,32.90
2023-06-25T19:11:04.128Z,32.80
2023-06-25T19:13:31.090Z,32.70
2023-06-25T19:15:58.061Z,32.70
2023-06-25T19:18:24.990Z,32.60
2023-06-25T19:20:51.885Z,32.60
2023-06-25T19:25:48.805Z,32.40
2023-06-25T19:28:15.703Z,32.40
2023-06-25T19:30:42.787Z,32.30
2023-06-25T19:33:09.756Z,32.20
2023-06-25T19:35:38.262Z,32.20
2023-06-25T19:38:05.250Z,32.20
2023-06-25T19:40:32.197Z,32.10
2023-06-25T19:42:59.174Z,32.10
2023-06-25T19:45:26.069Z,32.00
2023-06-25T19:47:53.101Z,32.00
2023-06-25T19:50:20.227Z,31.90
2023-06-25T19:52:47.195Z,31.90
2023-06-25T19:55:15.872Z,31.80
2023-06-25T19:57:43.622Z,31.80
2023-06-25T20:00:11.073Z,31.70
2023-06-25T20:02:38.684Z,31.70
2023-06-25T20:05:06.044Z,31.70
2023-06-25T20:07:33.063Z,31.60
2023-06-25T20:10:00.318Z,31.50
2023-06-25T20:12:30.114Z,31.50
2023-06-25T20:14:59.739Z,31.50
2023-06-25T20:17:28.164Z,31.40
2023-06-25T20:19:55.190Z,31.40
2023-06-25T20:22:22.070Z,31.40
2023-06-25T20:24:48.979Z,31.30
2023-06-25T20:27:15.967Z,31.30
2023-06-25T20:29:42.884Z,31.30
2023-06-25T20:32:09.859Z,31.30
2023-06-25T20:34:36.801Z,31.20
2023-06-25T20:37:03.877Z,31.20
2023-06-25T20:39:30.952Z,31.20
2023-06-25T20:41:57.907Z,31.10
2023-06-25T20:44:33.601Z,31.00
2023-06-25T20:47:04.355Z,31.00
2023-06-25T20:49:31.354Z,31.00
2023-06-25T20:51:59.132Z,31.00
2023-06-25T20:54:30.340Z,31.00
2023-06-25T20:56:57.484Z,30.90
2023-06-25T20:59:24.845Z,30.90
2023-06-25T21:01:51.912Z,30.80
2023-06-25T21:04:19.158Z,30.80
2023-06-25T21:06:46.097Z,30.80
2023-06-25T21:09:13.069Z,30.70
2023-06-25T21:11:40.021Z,30.70
2023-06-25T21:14:07.113Z,30.60
2023-06-25T21:16:34.186Z,30.60
2023-06-25T21:19:01.256Z,30.60
2023-06-25T21:21:28.818Z,30.50
2023-06-25T21:23:55.931Z,30.50
2023-06-25T21:26:23.858Z,30.50
2023-06-25T21:28:50.968Z,30.50
2023-06-25T21:31:18.154Z,30.40
2023-06-25T21:33:45.176Z,30.40
2023-06-25T21:36:12.065Z,30.40
2023-06-25T21:38:39.009Z,30.30
2023-06-25T21:41:06.047Z,30.30
2023-06-25T21:43:33.065Z,30.30
2023-06-25T21:46:00.051Z,30.20
2023-06-25T21:48:27.206Z,30.20
2023-06-25T21:50:59.976Z,30.20
2023-06-25T21:53:27.558Z,30.10
2023-06-25T21:55:54.688Z,30.10
2023-06-25T21:58:21.695Z,30.10
2023-06-25T22:00:48.627Z,30.00
2023-06-25T22:03:15.580Z,30.10
2023-06-25T22:05:43.440Z,30.00
2023-06-25T22:08:10.520Z,30.00
2023-06-25T22:10:38.028Z,29.90
2023-06-25T22:13:05.189Z,29.80
2023-06-25T22:15:32.604Z,29.80
2023-06-25T22:17:59.749Z,29.80
2023-06-25T22:20:28.563Z,29.70
2023-06-25T22:22:55.550Z,29.70
2023-06-25T22:25:22.646Z,29.60
2023-06-25T22:27:52.560Z,29.50
2023-06-25T22:30:20.517Z,29.50
2023-06-25T22:32:48.226Z,29.50
2023-06-25T22:35:15.425Z,29.40
2023-06-25T22:37:42.859Z,29.40
2023-06-25T22:40:10.591Z,29.40
2023-06-25T22:42:37.897Z,29.30
2023-06-25T22:45:06.873Z,29.30
2023-06-25T22:47:33.915Z,29.30
2023-06-25T22:50:00.964Z,29.30
2023-06-25T22:52:27.946Z,29.20
2023-06-25T22:54:54.990Z,29.20
2023-06-25T22:57:22.279Z,29.10
2023-06-25T22:59:49.347Z,29.00
2023-06-25T23:02:16.497Z,29.00
2023-06-25T23:04:44.340Z,29.00
2023-06-25T23:07:12.667Z,28.90
2023-06-25T23:09:39.748Z,28.80
2023-06-25T23:12:07.039Z,28.80
2023-06-25T23:14:34.153Z,28.80
2023-06-25T23:17:01.077Z,28.80
2023-06-25T23:19:33.190Z,28.80
2023-06-25T23:22:03.373Z,28.80
2023-06-25T23:24:39.548Z,28.80
2023-06-25T23:27:08.175Z,28.70
2023-06-25T23:29:35.766Z,28.70
2023-06-25T23:32:04.080Z,28.70
2023-06-25T23:34:34.847Z,28.70
2023-06-25T23:37:02.687Z,28.70
2023-06-25T23:39:29.908Z,28.70
2023-06-25T23:41:57.035Z,28.70
2023-06-25T23:44:24.047Z,28.60
2023-06-25T23:46:51.035Z,28.60
2023-06-25T23:49:18.039Z,28.70
2023-06-25T23:51:45.009Z,28.60
2023-06-25T23:54:12.001Z,28.60
2023-06-25T23:56:39.889Z,28.50
2023-06-25T23:59:06.815Z,28.50
